Flight Track Log - Related Links

Times and Time Zones

All times are in EDT time to prevent confusion due to time zone crossing. See the UAL258 flight status page for this flight to view local times or setup timezone preferences in your user account.

Time Position Orientation Groundspeed Altitude Reporting Facility
EDT Latitude Longitude Course Direction KTS MPH feet Rate Location/Type
Tue 01:56:22 PM 36.0761 -115.1683 270° West 153 176 3,300  Level Los Angeles Center
Tue 01:57:29 PM 36.0739 -115.2381 268° West 202 232 4,700 1,570 Climbing Los Angeles Center
Tue 01:58:00 PM 35.9069 -115.3853 207° Southwest  Level FlightAware Approximate
Tue 01:58:09 PM 36.0500 -115.2633 221° Southwest 217 250 6,100  Level Los Angeles Center
Tue 01:58:30 PM 36.0225 -115.2789 205° Southwest 242 278 6,800 1,742 Climbing Los Angeles Center
Tue 01:59:00 PM 35.8834 -115.5009 270° West  Level FlightAware Approximate
Tue 01:59:11 PM 35.9831 -115.2944 198° South 249 287 7,900  Level Los Angeles Center
Tue 01:59:31 PM 35.9519 -115.3233 217° Southwest 275 316 9,200 3,097 Climbing Los Angeles Center
Tue 02:00:00 PM 35.8833 -115.6345 270° West  Level FlightAware Approximate
Tue 02:00:13 PM 35.9253 -115.3556 224° Southwest 265 305 11,100  Level Los Angeles Center
Tue 02:01:00 PM 35.8833 -115.7680 270° West  Level FlightAware Approximate
Tue 02:01:15 PM 35.8869 -115.4372 240° Southwest 280 322 13,600  Level Los Angeles Center
Tue 02:02:17 PM 35.8894 -115.5672 271° West 315 362 16,000 2,565 Climbing Los Angeles Center
Tue 02:03:19 PM 35.8908 -115.6989 271° West 352 405 18,900 2,468 Climbing Los Angeles Center
Tue 02:04:21 PM 35.8933 -115.8264 271° West 371 427 21,100 1,790 Climbing Los Angeles Center
Tue 02:05:23 PM 35.9058 -115.9717 276° West 400 460 22,600 1,392 Climbing Los Angeles Center
Tue 02:06:26 PM 35.9736 -116.0592 314° West 417 480 24,000 1,344 Climbing Los Angeles Center
Tue 02:07:28 PM 36.0692 -116.1686 317° Northwest 428 493 25,400 1,452 Climbing Los Angeles Center
Tue 02:08:30 PM 36.1683 -116.2819 317° Northwest 436 502 27,000 1,887 Climbing Los Angeles Center
Tue 02:09:32 PM 36.2594 -116.3878 317° Northwest 446 513 29,300 1,839 Climbing Los Angeles Center
Tue 02:10:34 PM 36.3478 -116.4917 317° Northwest 441 507 30,800 1,306 Climbing Los Angeles Center
Tue 02:11:36 PM 36.4358 -116.5928 317° Northwest 435 501 32,000 576 Climbing Los Angeles Center
Tue 02:12:39 PM 36.5317 -116.7061 316° Northwest 428 493 32,000  Level Los Angeles Center
Tue 02:13:41 PM 36.6286 -116.7956 323° Northwest 434 499 32,000 -48 Level Los Angeles Center
Tue 02:14:43 PM 36.7383 -116.8761 330° Northwest 428 493 31,900  Descending Los Angeles Center
Tue 02:15:45 PM 36.8317 -116.9497 328° Northwest 428 493 32,000 48 Climbing Los Angeles Center
Tue 02:16:47 PM 36.9542 -117.0436 329° Northwest 430 495 32,000  Level Los Angeles Center
Tue 02:17:41 PM 37.0364 -117.1083 328° Northwest 431 496 32,000 52 Level Oakland Center
Tue 02:18:42 PM 37.1267 -117.2075 319° Northwest 435 501 32,100  Climbing Oakland Center
Tue 02:19:43 PM 37.1581 -117.3444 286° West 412 474 32,000 -49 Descending Oakland Center
Tue 02:20:45 PM 37.1783 -117.4858 280° West 411 473 32,000  Level Oakland Center
Tue 02:21:46 PM 37.1986 -117.6239 280° West 405 466 32,000  Level Oakland Center
Tue 02:22:47 PM 37.2228 -117.7922 280° West 406 467 32,000  Level Oakland Center
Tue 02:23:49 PM 37.2417 -117.9297 280° West 401 461 32,000  Level Oakland Center
Tue 02:24:50 PM 37.2617 -118.0686 280° West 403 464 32,000  Level Oakland Center
Tue 02:25:52 PM 37.2806 -118.2067 280° West 401 461 32,000  Level Oakland Center
Tue 02:26:53 PM 37.3003 -118.3461 280° West 404 465 32,000  Level Oakland Center
Tue 02:27:54 PM 37.3194 -118.4833 280° West 401 461 32,000  Level Oakland Center
Tue 02:28:56 PM 37.3367 -118.6172 279° West 394 453 32,000  Level Oakland Center
Tue 02:29:57 PM 37.3536 -118.7514 279° West 390 449 32,000  Level Oakland Center
Tue 02:30:58 PM 37.3783 -118.9136 281° West 412 474 32,000 -49 Level Oakland Center
Tue 02:32:00 PM 37.3953 -119.0464 279° West 393 452 31,900  Descending Oakland Center
Tue 02:33:01 PM 37.4125 -119.1825 279° West 395 455 32,000 49 Climbing Oakland Center
Tue 02:34:02 PM 37.4308 -119.3189 280° West 401 461 32,000  Level Oakland Center
Tue 02:35:04 PM 37.4722 -119.4519 291° West 409 471 32,000  Level Oakland Center
Tue 02:36:05 PM 37.5108 -119.5950 289° West 401 461 32,000  Level Oakland Center
Tue 02:37:07 PM 37.5297 -119.7350 280° West 404 465 32,000 -390 Level Oakland Center
Tue 02:38:08 PM 37.5500 -119.8756 280° West 405 466 31,200 -1,131 Descending Oakland Center
Tue 02:39:09 PM 37.5697 -120.0211 280° West 419 482 29,700 -1,756 Descending Oakland Center
Tue 02:40:11 PM 37.5867 -120.1644 279° West 413 475 27,600 -2,049 Descending Oakland Center
Tue 02:41:12 PM 37.5986 -120.3036 276° West 399 459 25,500 -2,489 Descending Oakland Center
Tue 02:41:45 PM 37.6000 -120.4000 271° West 396 456 23,700 -2,581 Descending Northern Cal TRACON
Tue 02:42:45 PM 37.6167 -120.5333 279° West 391 450 21,500 -2,105 Descending Northern Cal TRACON
Tue 02:43:39 PM 37.6000 -120.6500 260° West 377 434 19,700 -1,737 Descending Northern Cal TRACON
Tue 02:44:39 PM 37.6167 -120.7833 279° West 373 429 18,200 -1,143 Descending Northern Cal TRACON
Tue 02:45:45 PM 37.6333 -120.9167 279° West 369 425 17,300 -793 Descending Northern Cal TRACON
Tue 02:46:40 PM 37.6500 -121.0333 280° West 372 428 16,600 -1,600 Descending Northern Cal TRACON
Tue 02:47:45 PM 37.6167 -121.1667 253° West 379 436 14,100 -2,200 Descending Northern Cal TRACON
Tue 02:48:40 PM 37.6000 -121.2833 260° West 362 417 12,200 -1,600 Descending Northern Cal TRACON
Tue 02:49:45 PM 37.5833 -121.4167 261° West 347 399 10,900 -650 Descending Northern Cal TRACON
Tue 02:50:40 PM 37.5667 -121.5167 258° West 305 351 10,900  Level Northern Cal TRACON
Tue 02:51:40 PM 37.5500 -121.6167 258° West 301 346 10,900 -850 Level Northern Cal TRACON
Tue 02:52:40 PM 37.5167 -121.7167 247° West 301 346 9,200 -1,450 Descending Northern Cal TRACON
Tue 02:53:40 PM 37.5000 -121.8167 258° West 299 344 8,000 -600 Descending Northern Cal TRACON
Tue 02:54:40 PM 37.4833 -121.9000 256° West 261 300 8,000 -500 Level Northern Cal TRACON
Tue 02:55:40 PM 37.5000 -121.9833 284° West 242 278 7,000 -900 Descending Northern Cal TRACON
Tue 02:56:40 PM 37.5167 -122.0500 288° West 205 236 6,200 -1,200 Descending Northern Cal TRACON
Tue 02:57:40 PM 37.5500 -122.1167 302° West 190 219 4,600 -1,350 Descending Northern Cal TRACON
Tue 02:58:40 PM 37.5667 -122.1667 293° West 153 176 3,500 -1,250 Descending Northern Cal TRACON
Tue 02:59:40 PM 37.5667 -122.2167 270° West 161 185 2,100 -1,400 Descending Northern Cal TRACON

Login

Don't have an account? Register now (free) for customized features, flight alerts, and more!